Terminal Aerodrome Forecast
Issued by NWS St Louis, MO

Home | Current Version | Previous Version | Text Only | Print | Product List | Glossary On
Versions: 1 2 3 4 5 6 7 8 9 10 11 12 13 14 15 16 17 18 19 20 21 22 23 24
196
FTUS43 KLSX 301501 AAA
TAFSTL
TAF AMD
KSTL 301501Z 3015/0118 35009KT P6SM SCT008 BKN012
     FM301800 33009KT P6SM VCSH BKN025
      TEMPO 3019/3023 5SM -SHRA
     FM010300 33005KT P6SM BKN015
     FM010600 32005KT P6SM BKN008
     FM011500 30006KT P6SM VCSH BKN012=

USA.gov is the U.S. government's official web portal to all federal, state and local government web resources and services.